Latest Weather Observations for Wangaratta

IDV60801

Issued at 7:12 am EST Wednesday 22 September 2021 (issued every 10 minutes, with the page automatically refreshed every 10 minutes)

About weather observations | Map of weather stations | Latest weather observations for VIC | Other Formats
Station Details ID: 082138 Name: WANGARATTA AERO Lat: -36.42 Lon: 146.31 Height: 152.6 m
Data from the previous 72 hours. | See also: Recent months at Wangaratta
Date/Time
EST
Temp
°C
App
Temp
°C
Dew
Point
°C
Rel
Hum
%
Delta-T
°C
Wind Press
QNH
hPa
Press
MSL
hPa
Rain since
9am
mm
Dir  Spd
km/h
Gust
km/h
Spd
kts
Gust
kts
22/07:00am 7.2 5.2 6.1 93 0.5 SSE 6 7 3 4 1026.0 1026.1 0.0
22/06:58am 7.1 5.1 6.2 94 0.4 SE 6 9 3 5 1026.0 1026.1 0.0
22/06:30am 5.7 2.5 5.1 96 0.3 ENE 11 13 6 7 1025.7 1025.8 0.0
22/06:12am 5.8 3.0 5.1 95 0.3 E 9 15 5 8 1025.4 1025.5 0.0
22/06:00am 6.4 4.2 5.5 94 0.4 ESE 6 11 3 6 1025.2 1025.4 0.0
22/05:30am 6.5 5.1 5.6 94 0.4 SW 2 6 1 3 1025.1 1025.3 0.0
22/05:00am 6.2 4.4 5.2 93 0.4 SW 4 7 2 4 1024.9 1025.1 0.0
22/04:30am 5.8 4.8 5.5 98 0.1 CALM 0 0 0 0 1025.0 1025.2 0.0
22/04:00am 5.3 3.1 5.2 99 0.0 SW 6 7 3 4 1025.0 1025.2 0.0
22/03:30am 4.9 2.6 4.8 99 0.0 SSW 6 7 3 4 1025.2 1025.4 0.0
22/03:00am 5.1 3.2 4.7 97 0.2 SSW 4 6 2 3 1025.5 1025.6 0.0
22/02:30am 5.2 2.9 4.8 97 0.2 ESE 6 9 3 5 1026.0 1026.1 0.0
22/02:00am 4.6 2.1 3.9 95 0.3 E 6 7 3 4 1026.3 1026.4 0.0
22/01:30am 3.7 2.1 2.4 91 0.5 CALM 0 7 0 4 1026.5 1026.6 0.0
22/01:00am 4.5 3.0 3.2 91 0.5 CALM 0 7 0 4 1026.7 1026.8 0.0
22/12:30am 5.1 3.2 3.0 86 0.9 ESE 2 6 1 3 1027.1 1027.2 0.0
22/12:00am 5.3 2.1 3.3 87 0.8 NE 9 13 5 7 1027.0 1027.1 0.0
 
Date/Time
EST
Temp
°C
App
Temp
°C
Dew
Point
°C
Rel
Hum
%
Delta-T
°C
Wind Press
QNH
hPa
Press
MSL
hPa
Rain since
9am
mm
Dir  Spd
km/h
Gust
km/h
Spd
kts
Gust
kts
21/11:30pm 6.3 3.6 2.9 79 1.4 WSW 6 11 3 6 1027.1 1027.2 0.0
21/11:00pm 6.6 3.1 3.4 80 1.3 SW 11 15 6 8 1027.2 1027.3 0.0
21/10:30pm 7.3 2.6 3.4 76 1.7 WSW 17 20 9 11 1027.1 1027.2 0.0
21/10:00pm 7.9 2.7 3.4 73 1.9 SW 20 24 11 13 1027.1 1027.2 0.0
21/09:30pm 7.9 3.2 3.4 73 1.9 WSW 17 20 9 11 1027.1 1027.2 0.0
21/09:00pm 7.9 1.9 3.2 72 2.0 WSW 24 30 13 16 1027.0 1027.1 0.0
21/08:30pm 7.0 3.1 3.4 78 1.5 SW 13 17 7 9 1027.0 1027.1 0.0
21/08:00pm 9.0 3.4 3.4 68 2.4 SW 22 32 12 17 1026.8 1026.9 0.0
21/07:30pm 9.1 3.9 3.3 67 2.5 SW 20 28 11 15 1026.3 1026.4 0.0
21/07:00pm 9.2 4.0 3.6 68 2.4 SW 20 26 11 14 1025.9 1026.0 0.0
21/06:30pm 9.4 5.2 3.8 68 2.5 WSW 15 19 8 10 1025.4 1025.5 0.0
21/06:00pm 10.5 5.8 3.3 61 3.1 SW 17 26 9 14 1024.9 1025.1 0.0
21/05:30pm 11.3 5.3 3.3 58 3.5 SW 24 32 13 17 1024.4 1024.6 0.0
21/05:00pm 11.9 5.9 3.4 56 3.8 SW 24 35 13 19 1024.2 1024.4 0.0
21/04:30pm 12.8 5.5 2.6 50 4.5 SW 30 39 16 21 1023.9 1024.1 0.0
21/04:00pm 13.1 6.4 3.7 53 4.2 WSW 28 35 15 19 1023.9 1024.1 0.0
21/03:30pm 13.4 7.4 5.1 57 3.9 SW 26 33 14 18 1023.7 1023.9 0.0
21/03:00pm 13.5 7.3 4.4 54 4.2 SW 26 35 14 19 1023.7 1023.9 0.0
21/02:30pm 13.8 6.5 4.4 53 4.4 WSW 32 41 17 22 1023.9 1024.1 0.0
21/02:00pm 13.4 6.7 3.8 52 4.4 SW 28 37 15 20 1023.8 1024.0 0.0
21/01:30pm 13.1 7.3 4.3 55 4.0 SW 24 30 13 16 1023.5 1023.7 0.0
21/01:00pm 13.4 6.9 4.8 56 4.0 SW 28 37 15 20 1023.5 1023.7 0.0
21/12:30pm 13.1 6.5 4.0 54 4.2 SW 28 39 15 21 1023.5 1023.7 0.0
21/12:00pm 12.3 5.3 4.0 57 3.7 SW 30 41 16 22 1023.4 1023.6 0.0
21/11:30am 11.5 4.9 4.0 60 3.4 WSW 28 41 15 22 1023.8 1024.0 0.0
21/11:00am 10.9 3.7 3.0 58 3.4 SW 30 41 16 22 1023.7 1023.9 0.0
21/10:30am 10.9 4.9 3.5 60 3.3 SW 24 35 13 19 1023.4 1023.6 0.0
21/10:00am 10.3 2.9 3.8 64 2.9 SW 32 41 17 22 1023.4 1023.6 0.0
21/09:30am 9.9 4.0 4.1 67 2.6 SW 24 35 13 19 1022.7 1022.8 0.0
21/09:00am 9.0 4.2 4.4 73 2.0 SW 19 26 10 14 1022.2 1022.3 2.6
21/08:30am 7.5 1.6 3.7 77 1.6 WSW 24 35 13 19 1022.1 1022.2 2.6
21/08:00am 6.7 1.1 3.3 79 1.4 WSW 22 30 12 16 1022.0 1022.1 2.6
21/07:30am 6.0 0.7 3.0 81 1.3 WSW 20 28 11 15 1021.6 1021.7 2.6
21/07:00am 5.1 -0.1 2.6 84 1.0 WSW 19 26 10 14 1020.9 1021.0 2.6
21/06:30am 3.4 -0.7 2.4 93 0.4 WSW 13 17 7 9 1020.3 1020.4 2.6
21/06:00am 2.8 -1.0 1.8 93 0.4 W 11 15 6 8 1019.8 1019.9 2.6
21/05:30am 3.0 -1.5 2.1 94 0.4 WSW 15 20 8 11 1019.1 1019.2 2.6
21/05:00am 3.1 -1.4 1.9 92 0.5 W 15 20 8 11 1018.9 1019.0 2.6
21/04:30am 3.7 -1.1 2.4 91 0.5 W 17 22 9 12 1018.7 1018.8 2.6
21/04:00am 4.2 -1.0 2.6 89 0.6 W 19 24 10 13 1018.5 1018.6 2.6
21/03:30am 3.7 0.4 2.4 91 0.5 WNW 9 13 5 7 1018.0 1018.2 2.6
21/03:00am 3.4 -0.4 1.9 90 0.6 WSW 11 19 6 10 1017.9 1018.1 2.6
21/02:30am 3.6 -0.5 2.1 90 0.6 W 13 20 7 11 1017.7 1017.9 2.6
21/02:00am 3.9 -0.6 2.3 89 0.6 W 15 19 8 10 1017.4 1017.5 2.6
21/01:30am 4.3 -0.6 2.3 87 0.8 W 17 24 9 13 1017.6 1017.7 2.6
21/01:00am 4.5 -0.4 2.2 85 0.9 W 17 24 9 13 1017.5 1017.6 2.6
21/12:30am 4.7 -0.5 2.4 85 0.9 W 19 26 10 14 1017.2 1017.3 2.6
21/12:00am 4.2 0.5 2.2 87 0.8 W 11 15 6 8 1017.1 1017.2 2.6
 
Date/Time
EST
Temp
°C
App
Temp
°C
Dew
Point
°C
Rel
Hum
%
Delta-T
°C
Wind Press
QNH
hPa
Press
MSL
hPa
Rain since
9am
mm
Dir  Spd
km/h
Gust
km/h
Spd
kts
Gust
kts
20/11:30pm 4.6 -0.3 2.1 84 1.0 W 17 20 9 11 1017.0 1017.1 2.6
20/11:00pm 5.2 -0.2 2.2 81 1.2 W 20 28 11 15 1016.7 1016.8 2.6
20/10:30pm 5.1 -0.7 2.1 81 1.2 W 22 30 12 16 1016.3 1016.4 2.6
20/10:00pm 5.5 0.1 2.2 79 1.3 W 20 28 11 15 1016.4 1016.5 2.6
20/09:30pm 5.8 1.0 2.6 80 1.3 W 17 20 9 11 1015.9 1016.0 2.6
20/09:00pm 5.6 1.6 2.8 82 1.2 WNW 13 22 7 12 1016.0 1016.1 2.6
20/08:30pm 6.1 1.7 2.7 79 1.4 W 15 24 8 13 1015.8 1015.9 2.6
20/08:00pm 5.9 2.6 2.5 79 1.4 W 9 15 5 8 1015.7 1015.8 2.4
20/07:30pm 6.1 2.1 2.7 79 1.4 WNW 13 19 7 10 1015.2 1015.3 2.4
20/07:00pm 6.4 2.1 3.2 80 1.3 W 15 24 8 13 1014.6 1014.7 2.4
20/06:30pm 7.0 1.5 4.1 82 1.3 WNW 22 39 12 21 1014.4 1014.5 2.4
20/06:00pm 6.4 4.1 4.7 89 0.7 SSW 6 9 3 5 1014.0 1014.1 2.4
20/05:36pm 6.4 1.0 4.7 89 0.7 W 22 41 12 22 1013.9 1014.0 2.4
20/05:30pm 6.4 -2.6 4.4 87 0.9 WSW 41 65 22 35 1014.1 1014.2 2.2
20/05:27pm 6.6 -2.8 4.3 85 1.0 WSW 43 65 23 35 1014.3 1014.4 2.0
20/05:22pm 7.3 -0.1 5.0 85 1.0 W 33 65 18 35 1014.1 1014.2 1.6
20/05:20pm 8.9 2.6 5.6 80 1.5 W 28 56 15 30 1013.5 1013.6 1.2
20/05:00pm 8.9 4.1 5.5 79 1.6 W 20 30 11 16 1012.8 1012.9 1.0
20/04:30pm 8.5 2.2 5.8 83 1.2 W 28 37 15 20 1012.6 1012.7 1.0
20/04:00pm 8.6 -1.4 4.2 74 1.9 W 46 72 25 39 1012.8 1012.9 0.8
20/03:57pm 10.2 0.5 3.0 61 3.1 WNW 43 72 23 39 1012.4 1012.5 0.6
20/03:53pm 12.7 3.2 2.0 48 4.7 WNW 41 61 22 33 1011.5 1011.6 0.6
20/03:30pm 13.6 6.3 2.2 46 5.0 WNW 30 44 16 24 1011.1 1011.2 0.6
20/03:00pm 14.2 6.4 2.8 46 5.1 WNW 33 50 18 27 1011.2 1011.3 0.6
20/02:54pm 13.5 6.5 1.8 45 5.1 WNW 28 48 15 26 1011.2 1011.3 0.6
20/02:30pm 13.6 7.7 3.7 51 4.5 W 24 37 13 20 1011.5 1011.6 0.6
20/02:00pm 14.0 5.8 2.9 47 5.0 WNW 35 48 19 26 1011.9 1011.9 0.6
20/01:30pm 13.9 7.9 7.0 63 3.4 WNW 28 41 15 22 1012.0 1012.0 0.6
20/01:00pm 11.1 7.4 6.3 72 2.3 WSW 15 20 8 11 1012.6 1012.7 0.2
20/12:41pm 11.4 4.8 4.4 62 3.2 W 28 50 15 27 1013.0 1013.1 0.2
20/12:30pm 13.0 8.2 5.7 61 3.5 W 20 30 11 16 1012.8 1012.9 0.2
20/12:00pm 11.3 7.0 6.8 74 2.2 WSW 19 30 10 16 1013.3 1013.4 0.2
20/11:30am 13.0 6.3 5.4 60 3.6 W 30 41 16 22 1013.3 1013.4 0.0
20/11:00am 12.1 6.4 6.6 69 2.6 WNW 26 37 14 20 1013.6 1013.7 0.0
20/10:30am 12.0 6.8 7.3 73 2.3 W 24 37 13 20 1013.8 1013.9 0.0
20/10:00am 11.4 5.7 6.9 74 2.2 WNW 26 39 14 21 1013.9 1014.0 0.0
20/09:30am 10.6 5.8 7.3 80 1.6 WNW 22 33 12 18 1013.8 1013.9 0.0
20/09:00am 10.1 4.6 7.7 85 1.2 WNW 26 37 14 20 1013.9 1014.0 1.6
20/08:30am 9.6 4.2 7.9 89 0.8 WNW 26 41 14 22 1013.8 1013.9 1.6
20/08:00am 9.8 5.7 8.6 92 0.6 W 20 39 11 21 1013.9 1014.0 0.8
20/07:30am 10.0 4.4 8.8 92 0.6 W 28 39 15 21 1013.5 1013.6 0.0
20/07:00am 11.4 5.9 7.7 78 1.8 W 26 41 14 22 1013.0 1013.1 0.0
20/06:30am 12.7 6.9 8.0 73 2.3 W 28 41 15 22 1012.8 1012.9 0.0
20/06:00am 12.8 7.5 8.3 74 2.2 W 26 37 14 20 1012.3 1012.4 0.0
20/05:30am 13.3 7.9 6.4 63 3.3 WNW 24 33 13 18 1012.3 1012.4 0.0
20/05:00am 13.6 8.5 6.0 60 3.6 NW 22 32 12 17 1012.2 1012.3 0.0
20/04:30am 11.3 8.0 6.6 73 2.2 N 13 17 7 9 1012.2 1012.3 0.0
20/04:00am 11.7 8.0 6.2 69 2.6 N 15 22 8 12 1012.3 1012.4 0.0
20/03:30am 11.3 7.6 6.2 71 2.4 N 15 19 8 10 1012.4 1012.5 0.0
20/03:00am 11.4 8.3 7.1 75 2.1 NNE 13 15 7 8 1012.7 1012.8 0.0
20/02:30am 12.1 8.9 7.0 71 2.5 N 13 20 7 11 1013.2 1013.3 0.0
20/02:00am 13.9 10.4 7.4 65 3.2 NW 15 24 8 13 1013.7 1013.8 0.0
20/01:30am 12.0 8.7 6.3 68 2.7 N 13 15 7 8 1014.4 1014.5 0.0
20/01:00am 12.2 10.1 6.7 69 2.6 N 7 9 4 5 1014.8 1014.9 0.0
20/12:30am 12.5 9.4 5.4 62 3.3 NNE 11 13 6 7 1014.8 1014.9 0.0
20/12:00am 13.9 9.4 4.2 52 4.5 WNW 17 24 9 13 1014.9 1015.0 0.0
 
Date/Time
EST
Temp
°C
App
Temp
°C
Dew
Point
°C
Rel
Hum
%
Delta-T
°C
Wind Press
QNH
hPa
Press
MSL
hPa
Rain since
9am
mm
Dir  Spd
km/h
Gust
km/h
Spd
kts
Gust
kts
19/11:30pm 11.7 9.1 6.0 68 2.7 WNW 9 15 5 8 1015.4 1015.5 0.0
19/11:00pm 12.6 8.4 5.5 62 3.3 N 17 22 9 12 1015.0 1015.1 0.0
19/10:30pm 12.6 8.0 5.8 63 3.2 N 19 22 10 12 1015.2 1015.3 0.0
19/10:00pm 12.8 8.2 5.5 61 3.4 N 19 26 10 14 1015.4 1015.5 0.0
19/09:30pm 12.8 9.0 5.9 63 3.3 N 15 19 8 10 1015.4 1015.5 0.0
19/09:00pm 12.8 9.5 6.6 66 3.0 N 13 17 7 9 1015.7 1015.8 0.0
19/08:30pm 12.8 9.9 6.4 65 3.1 N 11 13 6 7 1016.0 1016.1 0.0
19/08:00pm 13.3 11.1 7.7 69 2.8 N 9 11 5 6 1016.3 1016.4 0.0
19/07:30pm 13.3 11.6 8.2 71 2.6 NNE 7 9 4 5 1016.4 1016.5 0.0
19/07:00pm 13.2 11.3 8.9 75 2.2 NE 9 11 5 6 1016.6 1016.7 0.0
19/06:30pm 13.8 12.0 8.0 68 2.9 NE 7 9 4 5 1016.4 1016.5 0.0
19/06:00pm 14.8 13.1 8.3 65 3.3 ENE 7 9 4 5 1016.4 1016.5 0.0
19/05:30pm 15.9 14.0 7.4 57 4.3 NE 7 11 4 6 1016.6 1016.7 0.0
19/05:00pm 16.6 13.9 5.6 48 5.3 N 9 11 5 6 1017.0 1017.1 0.0
19/04:30pm 16.5 12.9 5.2 47 5.4 N 13 19 7 10 1017.1 1017.2 0.0
19/04:00pm 16.8 13.4 6.0 49 5.3 NNW 13 19 7 10 1017.3 1017.4 0.0
19/03:30pm 16.7 11.6 4.1 43 5.9 NW 20 30 11 16 1017.6 1017.7 0.0
19/03:00pm 16.6 12.1 6.1 50 5.1 NW 19 26 10 14 1018.2 1018.4 0.0
19/02:30pm 16.0 11.4 5.6 50 5.0 NNW 19 24 10 13 1018.6 1018.7 0.0
19/02:00pm 16.1 10.9 5.4 49 5.1 NNW 22 35 12 19 1018.9 1019.0 0.0
19/01:30pm 15.7 11.1 5.6 51 4.9 NW 19 26 10 14 1019.4 1019.5 0.0
19/01:00pm 15.9 10.4 6.1 52 4.8 NNW 24 37 13 20 1020.0 1020.1 0.0
19/12:30pm 14.5 8.9 5.3 54 4.4 WNW 24 41 13 22 1020.6 1020.7 0.0
19/12:00pm 15.3 10.6 6.1 54 4.5 NNW 20 35 11 19 1020.7 1020.8 0.0
19/11:30am 14.6 9.5 5.9 56 4.2 N 22 32 12 17 1020.9 1021.0 0.0
19/11:00am 14.7 9.2 5.8 55 4.3 NNW 24 35 13 19 1021.4 1021.5 0.0
19/10:30am 13.7 10.2 7.2 65 3.2 N 15 22 8 12 1021.8 1021.9 0.0
19/10:00am 12.4 8.2 5.8 64 3.1 N 17 22 9 12 1022.0 1022.1 0.0
19/09:30am 11.6 8.2 5.7 67 2.8 N 13 20 7 11 1022.1 1022.2 0.0
19/09:00am 10.5 7.5 6.1 74 2.1 N 11 15 6 8 1022.2 1022.3 0.0
19/08:30am 8.7 6.6 6.5 86 1.0 NNE 7 11 4 6 1022.2 1022.3 0.0
19/08:00am 6.3 5.0 6.2 99 0.0 N 2 7 1 4 1022.3 1022.4 0.0
19/07:30am 5.2 4.1 5.1 99 0.0 CALM 0 0 0 0 1022.3 1022.4 0.0

Other formats

Comma delimited format used in spreadsheet applications
http://www.bom.gov.au/fwo/IDV60801/IDV60801.94889.axf

JavaScript Object Notation format (JSON) in row-major order
http://www.bom.gov.au/fwo/IDV60801/IDV60801.94889.json

Data quality

Most of these data are generated automatically and are frequently updated. Quality checks on data are not normally performed. It is possible for incorrect values to appear. Refer to information at About Latest Weather Observations and please check the disclaimer before using these data.